createdAt,value
2019-04-10T00:03:32.814Z,4.75
2019-04-10T00:08:32.499Z,4.73
2019-04-10T00:13:37.056Z,4.26
2019-04-10T00:18:43.026Z,4.31
2019-04-10T00:23:47.388Z,4.26
2019-04-10T00:28:51.997Z,4.25
2019-04-10T00:33:56.973Z,4.21
2019-04-10T00:39:02.291Z,4.91
2019-04-10T00:44:08.403Z,4.11
2019-04-10T00:49:13.489Z,4.08
2019-04-10T00:54:18.165Z,4.50
2019-04-10T00:59:22.610Z,4.29
2019-04-10T01:04:27.021Z,4.41
2019-04-10T01:09:31.531Z,4.44
2019-04-10T01:14:35.985Z,4.92
2019-04-10T01:19:41.799Z,4.66
2019-04-10T01:24:46.277Z,4.22
2019-04-10T01:29:51.557Z,4.18
2019-04-10T01:34:56.002Z,4.43
2019-04-10T01:40:00.350Z,3.95
2019-04-10T01:45:06.256Z,4.24
2019-04-10T01:50:12.434Z,4.24
2019-04-10T01:55:24.273Z,4.30
2019-04-10T02:00:25.683Z,4.05
2019-04-10T02:05:30.340Z,4.40
2019-04-10T02:10:34.686Z,4.34
2019-04-10T02:15:39.067Z,4.37
2019-04-10T02:20:43.424Z,4.33
2019-04-10T02:25:47.813Z,4.78
2019-04-10T02:30:52.181Z,4.40
2019-04-10T02:35:57.143Z,4.35
2019-04-10T02:41:01.802Z,4.20
2019-04-10T02:46:08.206Z,4.27
2019-04-10T02:51:13.786Z,4.65
2019-04-10T02:56:20.700Z,4.42
2019-04-10T03:01:25.327Z,4.51
2019-04-10T03:06:30.994Z,4.57
2019-04-10T03:11:36.515Z,4.63
2019-04-10T03:16:41.743Z,4.48
2019-04-10T03:21:47.093Z,4.67
2019-04-10T03:26:52.154Z,4.91
2019-04-10T03:31:59.546Z,4.51
2019-04-10T03:37:04.403Z,4.68
2019-04-10T03:42:08.844Z,5.03
2019-04-10T03:47:13.352Z,4.55
2019-04-10T03:52:18.682Z,4.67
2019-04-10T03:57:23.394Z,4.55
2019-04-10T04:02:27.799Z,4.35
2019-04-10T04:07:32.621Z,4.54
2019-04-10T04:12:37.146Z,4.40
2019-04-10T04:17:41.556Z,4.00
2019-04-10T04:22:47.464Z,4.00
2019-04-10T04:27:51.968Z,3.72
2019-04-10T04:32:56.328Z,4.01
2019-04-10T04:38:00.689Z,3.89
2019-04-10T04:43:05.648Z,3.98
2019-04-10T04:48:10.252Z,3.83
2019-04-10T04:53:14.635Z,3.84
2019-04-10T04:58:20.193Z,3.91
2019-04-10T05:03:25.675Z,4.28
2019-04-10T05:08:30.295Z,4.46
2019-04-10T05:13:34.902Z,4.65
2019-04-10T05:18:39.307Z,4.77
2019-04-10T05:23:43.835Z,4.52
2019-04-10T05:28:48.632Z,4.98
2019-04-10T05:33:53.292Z,5.54
2019-04-10T05:38:57.850Z,5.24
2019-04-10T05:44:02.778Z,5.25
2019-04-10T05:49:07.270Z,5.67
2019-04-10T05:54:12.771Z,6.00
2019-04-10T05:59:17.171Z,5.70
2019-04-10T06:04:21.635Z,6.08
2019-04-10T06:09:26.870Z,6.63
2019-04-10T06:14:32.395Z,6.66
2019-04-10T06:19:36.900Z,7.23
2019-04-10T06:24:42.465Z,6.49
2019-04-10T06:29:48.384Z,7.20
2019-04-10T06:34:52.858Z,6.22
2019-04-10T06:40:08.028Z,6.15
2019-04-10T06:45:05.696Z,5.90
2019-04-10T06:50:10.654Z,6.69
2019-04-10T06:55:15.413Z,7.02
2019-04-10T07:00:21.285Z,6.51
2019-04-10T07:05:37.031Z,6.93
2019-04-10T07:10:43.735Z,6.55
2019-04-10T07:15:40.940Z,8.38
2019-04-10T07:20:46.167Z,7.68
2019-04-10T07:25:51.999Z,7.51
2019-04-10T07:31:00.250Z,8.06
2019-04-10T07:36:06.729Z,8.30
2019-04-10T07:41:14.331Z,7.62
2019-04-10T07:46:15.527Z,7.88
2019-04-10T07:51:21.066Z,9.01
2019-04-10T07:56:26.675Z,8.55
2019-04-10T08:01:31.242Z,8.06
2019-04-10T08:06:37.395Z,7.63
2019-04-10T08:11:42.506Z,8.00
2019-04-10T08:16:47.935Z,7.70
2019-04-10T08:21:52.776Z,8.44
2019-04-10T08:26:57.213Z,7.88
2019-04-10T08:32:01.607Z,8.04
2019-04-10T08:37:06.054Z,8.41
2019-04-10T08:42:10.709Z,7.44
2019-04-10T08:47:15.329Z,8.14
2019-04-10T08:52:19.949Z,7.87
2019-04-10T08:57:24.361Z,7.81
2019-04-10T09:02:28.739Z,8.78
2019-04-10T09:07:33.157Z,8.58
2019-04-10T09:12:37.529Z,7.61
2019-04-10T09:17:41.895Z,8.02
2019-04-10T09:23:10.628Z,8.24
2019-04-10T09:27:52.320Z,8.44
2019-04-10T09:32:57.062Z,8.24
2019-04-10T09:38:02.252Z,8.39
2019-04-10T09:43:07.346Z,8.46
2019-04-10T09:48:12.807Z,8.65
2019-04-10T09:53:17.201Z,8.40
2019-04-10T09:58:21.941Z,9.05
2019-04-10T10:03:26.383Z,8.94
2019-04-10T10:08:31.641Z,8.61
2019-04-10T10:13:37.267Z,9.08
2019-04-10T10:18:41.750Z,9.27
2019-04-10T10:23:46.473Z,8.71
2019-04-10T10:28:51.006Z,8.80
2019-04-10T10:33:56.458Z,9.33
2019-04-10T10:39:06.934Z,9.37
2019-04-10T10:44:08.992Z,8.68
2019-04-10T10:49:13.437Z,9.51
2019-04-10T10:54:18.917Z,9.55
2019-04-10T10:59:23.410Z,9.36
2019-04-10T11:04:27.844Z,9.69
2019-04-10T11:09:32.399Z,9.00
2019-04-10T11:14:39.503Z,9.78
2019-04-10T11:19:45.555Z,9.23
2019-04-10T11:24:51.172Z,9.04
2019-04-10T11:29:55.698Z,9.74
2019-04-10T11:35:00.047Z,9.34
2019-04-10T11:40:06.395Z,9.52
2019-04-10T11:45:11.472Z,9.26
2019-04-10T11:50:18.689Z,9.86
2019-04-10T11:55:27.076Z,9.97
2019-04-10T12:00:45.322Z,10.32
2019-04-10T12:05:46.194Z,10.09
2019-04-10T12:11:05.195Z,10.33
2019-04-10T12:15:56.700Z,10.08
2019-04-10T12:21:01.893Z,10.08
2019-04-10T12:26:07.541Z,10.07
2019-04-10T12:31:12.094Z,10.22
2019-04-10T12:36:18.301Z,10.31
2019-04-10T12:41:23.495Z,9.99
2019-04-10T12:46:28.912Z,9.72
2019-04-10T12:51:34.797Z,10.05
2019-04-10T12:56:40.167Z,9.76
2019-04-10T13:01:44.897Z,10.62
2019-04-10T13:06:52.328Z,10.90
2019-04-10T13:11:56.521Z,10.15
2019-04-10T13:17:01.253Z,9.89
2019-04-10T13:22:05.664Z,10.07
2019-04-10T13:27:10.419Z,10.50
2019-04-10T13:32:16.738Z,10.42
2019-04-10T13:37:21.020Z,10.39
2019-04-10T13:42:25.710Z,10.32
2019-04-10T13:47:30.499Z,10.38
2019-04-10T13:52:36.671Z,10.37
2019-04-10T13:57:41.030Z,10.56
2019-04-10T14:02:45.831Z,9.91
2019-04-10T14:07:51.275Z,10.39
2019-04-10T14:12:57.711Z,10.42
2019-04-10T14:18:02.017Z,10.00
2019-04-10T14:23:23.422Z,10.50
2019-04-10T14:28:29.409Z,10.06
2019-04-10T14:33:33.836Z,10.67
2019-04-10T14:38:39.073Z,10.59
2019-04-10T14:43:45.378Z,10.55
2019-04-10T14:48:50.658Z,10.53
2019-04-10T14:53:55.378Z,10.66
2019-04-10T14:59:01.021Z,10.60
2019-04-10T15:04:06.018Z,10.43
2019-04-10T15:09:24.032Z,10.40
2019-04-10T15:14:25.723Z,10.31
2019-04-10T15:19:32.289Z,10.25
2019-04-10T15:24:36.835Z,10.41
2019-04-10T15:29:41.212Z,10.41
2019-04-10T15:34:46.027Z,10.46
2019-04-10T15:39:50.462Z,10.38
2019-04-10T15:44:54.854Z,10.52
2019-04-10T15:49:59.884Z,10.42
2019-04-10T15:55:05.688Z,10.49
2019-04-10T16:00:10.777Z,10.43
2019-04-10T16:05:15.471Z,10.41
2019-04-10T16:10:33.559Z,10.28
2019-04-10T16:15:42.881Z,10.72
2019-04-10T16:20:49.049Z,10.29
2019-04-10T16:25:54.573Z,10.24
2019-04-10T16:30:59.282Z,10.01
2019-04-10T16:36:05.162Z,9.72
2019-04-10T16:41:10.854Z,9.89
2019-04-10T16:46:15.407Z,9.93
2019-04-10T16:51:20.768Z,9.84
2019-04-10T16:56:25.516Z,9.59
2019-04-10T17:01:30.954Z,9.63
2019-04-10T17:06:36.526Z,9.79
2019-04-10T17:11:42.162Z,9.53
2019-04-10T17:16:46.521Z,9.68
2019-04-10T17:21:52.107Z,9.40
2019-04-10T17:26:57.316Z,9.26
2019-04-10T17:32:02.677Z,9.27
2019-04-10T17:37:07.573Z,9.38
2019-04-10T17:42:14.530Z,9.20
2019-04-10T17:47:18.906Z,9.36
2019-04-10T17:52:23.336Z,8.98
2019-04-10T17:57:36.259Z,9.06
2019-04-10T18:02:34.750Z,8.71
2019-04-10T18:07:40.563Z,8.80
2019-04-10T18:12:46.087Z,8.73
2019-04-10T18:17:51.594Z,8.74
2019-04-10T18:22:56.038Z,8.47
2019-04-10T18:28:01.174Z,8.40
2019-04-10T18:33:07.227Z,8.43
2019-04-10T18:38:11.594Z,8.38
2019-04-10T18:43:16.107Z,7.92
2019-04-10T18:48:20.800Z,7.86
2019-04-10T18:53:25.247Z,7.98
2019-04-10T18:58:31.707Z,7.49
2019-04-10T19:03:47.979Z,8.07
2019-04-10T19:08:46.132Z,8.05
2019-04-10T19:13:50.984Z,7.41
2019-04-10T19:18:56.775Z,7.37
2019-04-10T19:24:01.581Z,7.23
2019-04-10T19:29:07.427Z,7.51
2019-04-10T19:34:12.805Z,7.54
2019-04-10T19:39:18.179Z,7.25
2019-04-10T19:44:23.209Z,7.27
2019-04-10T19:49:28.182Z,7.16
2019-04-10T19:54:33.243Z,6.97
2019-04-10T19:59:37.769Z,6.81
2019-04-10T20:04:43.277Z,6.47
2019-04-10T20:09:48.574Z,6.36
2019-04-10T20:14:53.368Z,6.09
2019-04-10T20:19:58.697Z,6.14
2019-04-10T20:25:04.184Z,5.83
2019-04-10T20:30:09.956Z,6.04
2019-04-10T20:35:16.320Z,6.02
2019-04-10T20:40:22.305Z,5.81
2019-04-10T20:45:26.853Z,5.83
2019-04-10T20:50:32.124Z,6.00
2019-04-10T20:55:37.694Z,5.83
2019-04-10T21:00:43.071Z,5.83
2019-04-10T21:05:48.714Z,5.86
2019-04-10T21:10:53.093Z,5.84
2019-04-10T21:15:58.356Z,5.43
2019-04-10T21:21:02.917Z,5.95
2019-04-10T21:26:08.679Z,5.47
2019-04-10T21:31:23.705Z,5.31
2019-04-10T21:36:28.362Z,5.41
2019-04-10T21:41:32.803Z,5.93
2019-04-10T21:46:37.194Z,5.80
2019-04-10T21:51:42.744Z,5.56
2019-04-10T21:56:47.298Z,5.07
2019-04-10T22:01:52.896Z,5.06
2019-04-10T22:07:01.662Z,4.86
2019-04-10T22:12:25.005Z,4.94
2019-04-10T22:17:20.397Z,4.75
2019-04-10T22:22:24.763Z,4.71
2019-04-10T22:27:29.602Z,4.66
2019-04-10T22:32:35.232Z,4.67
2019-04-10T22:37:40.007Z,4.60
2019-04-10T22:42:47.027Z,4.68
2019-04-10T22:47:50.625Z,4.45
2019-04-10T22:52:56.997Z,4.67
2019-04-10T22:58:02.530Z,4.74
2019-04-10T23:03:07.224Z,4.71
2019-04-10T23:08:11.667Z,4.29
2019-04-10T23:13:16.137Z,4.66
2019-04-10T23:18:21.377Z,4.22
2019-04-10T23:23:25.893Z,4.34
2019-04-10T23:28:30.232Z,4.34
2019-04-10T23:33:34.655Z,4.60
2019-04-10T23:38:39.593Z,4.31
2019-04-10T23:43:44.066Z,4.28
2019-04-10T23:48:48.927Z,4.30
2019-04-10T23:53:53.374Z,4.06
2019-04-10T23:58:58.272Z,4.09
